sensor_id;sensor_type;location;lat;lon;timestamp;temperature;humidity
14614;DHT22;7393;51.446;6.800;2024-02-23T00:01:51;6.50;1.00
14614;DHT22;7393;51.446;6.800;2024-02-23T00:04:17;6.50;1.00
14614;DHT22;7393;51.446;6.800;2024-02-23T00:06:45;6.50;1.00
14614;DHT22;7393;51.446;6.800;2024-02-23T00:09:12;6.40;1.00
14614;DHT22;7393;51.446;6.800;2024-02-23T00:11:41;6.40;1.00
14614;DHT22;7393;51.446;6.800;2024-02-23T00:14:10;6.30;1.00
14614;DHT22;7393;51.446;6.800;2024-02-23T00:16:39;6.30;1.00
14614;DHT22;7393;51.446;6.800;2024-02-23T00:19:07;6.30;1.00
14614;DHT22;7393;51.446;6.800;2024-02-23T00:21:35;6.30;1.00
14614;DHT22;7393;51.446;6.800;2024-02-23T00:24:02;6.30;1.00
14614;DHT22;7393;51.446;6.800;2024-02-23T00:26:29;6.30;1.00
14614;DHT22;7393;51.446;6.800;2024-02-23T00:28:57;6.30;1.00
14614;DHT22;7393;51.446;6.800;2024-02-23T00:31:24;6.30;1.00
14614;DHT22;7393;51.446;6.800;2024-02-23T00:33:51;6.30;1.00
14614;DHT22;7393;51.446;6.800;2024-02-23T00:36:17;6.20;1.00
14614;DHT22;7393;51.446;6.800;2024-02-23T00:38:44;6.20;1.00
14614;DHT22;7393;51.446;6.800;2024-02-23T00:41:11;6.20;1.00
14614;DHT22;7393;51.446;6.800;2024-02-23T00:43:38;6.30;1.00
14614;DHT22;7393;51.446;6.800;2024-02-23T00:46:07;6.30;1.00
14614;DHT22;7393;51.446;6.800;2024-02-23T00:48:34;6.20;1.00
14614;DHT22;7393;51.446;6.800;2024-02-23T00:51:01;6.20;1.00
14614;DHT22;7393;51.446;6.800;2024-02-23T00:53:30;6.30;1.00
14614;DHT22;7393;51.446;6.800;2024-02-23T00:55:57;6.30;1.00
14614;DHT22;7393;51.446;6.800;2024-02-23T00:58:24;6.30;1.00
14614;DHT22;7393;51.446;6.800;2024-02-23T01:00:51;6.30;1.00
14614;DHT22;7393;51.446;6.800;2024-02-23T01:03:19;6.30;1.00
14614;DHT22;7393;51.446;6.800;2024-02-23T01:05:46;6.30;1.00
14614;DHT22;7393;51.446;6.800;2024-02-23T01:08:13;6.30;1.00
14614;DHT22;7393;51.446;6.800;2024-02-23T01:10:40;6.30;1.00
14614;DHT22;7393;51.446;6.800;2024-02-23T01:13:07;6.20;1.00
14614;DHT22;7393;51.446;6.800;2024-02-23T01:15:33;6.20;1.00
14614;DHT22;7393;51.446;6.800;2024-02-23T01:18:00;6.20;1.00
14614;DHT22;7393;51.446;6.800;2024-02-23T01:20:28;6.30;1.00
14614;DHT22;7393;51.446;6.800;2024-02-23T01:22:55;6.30;1.00
14614;DHT22;7393;51.446;6.800;2024-02-23T01:25:22;6.30;1.00
14614;DHT22;7393;51.446;6.800;2024-02-23T01:27:49;6.30;1.00
14614;DHT22;7393;51.446;6.800;2024-02-23T01:30:16;6.30;1.00
14614;DHT22;7393;51.446;6.800;2024-02-23T01:32:44;6.30;1.00
14614;DHT22;7393;51.446;6.800;2024-02-23T01:35:11;6.30;1.00
14614;DHT22;7393;51.446;6.800;2024-02-23T01:37:39;6.30;1.00
14614;DHT22;7393;51.446;6.800;2024-02-23T01:40:07;6.40;1.00
14614;DHT22;7393;51.446;6.800;2024-02-23T01:42:33;6.40;1.00
14614;DHT22;7393;51.446;6.800;2024-02-23T01:45:00;6.40;1.00
14614;DHT22;7393;51.446;6.800;2024-02-23T01:47:29;6.40;1.00
14614;DHT22;7393;51.446;6.800;2024-02-23T01:49:57;6.40;1.00
14614;DHT22;7393;51.446;6.800;2024-02-23T01:52:25;6.40;1.00
14614;DHT22;7393;51.446;6.800;2024-02-23T01:54:54;6.40;1.00
14614;DHT22;7393;51.446;6.800;2024-02-23T01:57:23;6.40;1.00
14614;DHT22;7393;51.446;6.800;2024-02-23T01:59:50;6.40;1.00
14614;DHT22;7393;51.446;6.800;2024-02-23T02:02:17;6.40;1.00
14614;DHT22;7393;51.446;6.800;2024-02-23T02:04:44;6.40;1.00
14614;DHT22;7393;51.446;6.800;2024-02-23T02:07:11;6.40;1.00
14614;DHT22;7393;51.446;6.800;2024-02-23T02:09:38;6.40;1.00
14614;DHT22;7393;51.446;6.800;2024-02-23T02:12:06;6.40;1.00
14614;DHT22;7393;51.446;6.800;2024-02-23T02:14:33;6.40;1.00
14614;DHT22;7393;51.446;6.800;2024-02-23T02:17:00;6.50;1.00
14614;DHT22;7393;51.446;6.800;2024-02-23T02:19:26;6.50;1.00
14614;DHT22;7393;51.446;6.800;2024-02-23T02:21:53;6.50;1.00
14614;DHT22;7393;51.446;6.800;2024-02-23T02:24:20;6.50;1.00
14614;DHT22;7393;51.446;6.800;2024-02-23T02:26:47;6.40;1.00
14614;DHT22;7393;51.446;6.800;2024-02-23T02:29:17;6.40;1.00
14614;DHT22;7393;51.446;6.800;2024-02-23T02:31:44;6.40;1.00
14614;DHT22;7393;51.446;6.800;2024-02-23T02:34:10;6.40;1.00
14614;DHT22;7393;51.446;6.800;2024-02-23T02:36:38;6.40;1.00
14614;DHT22;7393;51.446;6.800;2024-02-23T02:39:05;6.30;1.00
14614;DHT22;7393;51.446;6.800;2024-02-23T02:41:32;6.30;1.00
14614;DHT22;7393;51.446;6.800;2024-02-23T02:43:59;6.30;1.00
14614;DHT22;7393;51.446;6.800;2024-02-23T02:46:27;6.40;1.00
14614;DHT22;7393;51.446;6.800;2024-02-23T02:48:54;6.30;1.00
14614;DHT22;7393;51.446;6.800;2024-02-23T02:51:21;6.30;1.00
14614;DHT22;7393;51.446;6.800;2024-02-23T02:53:48;6.30;1.00
14614;DHT22;7393;51.446;6.800;2024-02-23T02:56:15;6.20;1.00
14614;DHT22;7393;51.446;6.800;2024-02-23T02:58:41;6.20;1.00
14614;DHT22;7393;51.446;6.800;2024-02-23T03:01:08;6.20;1.00
14614;DHT22;7393;51.446;6.800;2024-02-23T03:03:36;6.20;1.00
14614;DHT22;7393;51.446;6.800;2024-02-23T03:06:03;6.20;1.00
14614;DHT22;7393;51.446;6.800;2024-02-23T03:08:31;6.10;1.00
14614;DHT22;7393;51.446;6.800;2024-02-23T03:10:58;6.10;1.00
14614;DHT22;7393;51.446;6.800;2024-02-23T03:13:24;6.10;1.00
14614;DHT22;7393;51.446;6.800;2024-02-23T03:15:51;6.20;1.00
14614;DHT22;7393;51.446;6.800;2024-02-23T03:18:18;6.20;1.00
14614;DHT22;7393;51.446;6.800;2024-02-23T03:20:46;6.10;1.00
14614;DHT22;7393;51.446;6.800;2024-02-23T03:23:13;6.00;1.00
14614;DHT22;7393;51.446;6.800;2024-02-23T03:25:40;6.10;1.00
14614;DHT22;7393;51.446;6.800;2024-02-23T03:28:07;6.10;1.00
14614;DHT22;7393;51.446;6.800;2024-02-23T03:30:33;6.00;1.00
14614;DHT22;7393;51.446;6.800;2024-02-23T03:33:00;6.00;1.00
14614;DHT22;7393;51.446;6.800;2024-02-23T03:35:27;6.00;1.00
14614;DHT22;7393;51.446;6.800;2024-02-23T03:37:55;6.00;1.00
14614;DHT22;7393;51.446;6.800;2024-02-23T03:40:22;6.10;1.00
14614;DHT22;7393;51.446;6.800;2024-02-23T03:42:49;6.10;1.00
14614;DHT22;7393;51.446;6.800;2024-02-23T03:45:16;6.10;1.00
14614;DHT22;7393;51.446;6.800;2024-02-23T03:47:42;6.10;1.00
14614;DHT22;7393;51.446;6.800;2024-02-23T03:50:10;6.10;1.00
14614;DHT22;7393;51.446;6.800;2024-02-23T03:52:36;6.10;1.00
14614;DHT22;7393;51.446;6.800;2024-02-23T03:55:06;6.10;1.00
14614;DHT22;7393;51.446;6.800;2024-02-23T03:57:33;6.20;1.00
14614;DHT22;7393;51.446;6.800;2024-02-23T03:59:59;6.10;1.00
14614;DHT22;7393;51.446;6.800;2024-02-23T04:02:26;6.20;1.00
14614;DHT22;7393;51.446;6.800;2024-02-23T04:04:53;6.20;1.00
14614;DHT22;7393;51.446;6.800;2024-02-23T04:07:20;6.20;1.00
14614;DHT22;7393;51.446;6.800;2024-02-23T04:09:47;6.20;1.00
14614;DHT22;7393;51.446;6.800;2024-02-23T04:12:19;6.20;1.00
14614;DHT22;7393;51.446;6.800;2024-02-23T04:14:46;6.20;1.00
14614;DHT22;7393;51.446;6.800;2024-02-23T04:17:13;6.20;1.00
14614;DHT22;7393;51.446;6.800;2024-02-23T04:19:40;6.20;1.00
14614;DHT22;7393;51.446;6.800;2024-02-23T04:22:07;6.30;1.00
14614;DHT22;7393;51.446;6.800;2024-02-23T04:24:36;6.30;1.00
14614;DHT22;7393;51.446;6.800;2024-02-23T04:27:04;6.30;1.00
14614;DHT22;7393;51.446;6.800;2024-02-23T04:29:33;6.30;1.00
14614;DHT22;7393;51.446;6.800;2024-02-23T04:32:00;6.30;1.00
14614;DHT22;7393;51.446;6.800;2024-02-23T04:34:27;6.30;1.00
14614;DHT22;7393;51.446;6.800;2024-02-23T04:36:54;6.30;1.00
14614;DHT22;7393;51.446;6.800;2024-02-23T04:39:21;6.30;1.00
14614;DHT22;7393;51.446;6.800;2024-02-23T04:41:48;6.30;1.00
14614;DHT22;7393;51.446;6.800;2024-02-23T04:44:15;6.30;1.00
14614;DHT22;7393;51.446;6.800;2024-02-23T04:46:43;6.30;1.00
14614;DHT22;7393;51.446;6.800;2024-02-23T04:49:10;6.30;1.00
14614;DHT22;7393;51.446;6.800;2024-02-23T04:51:38;6.30;1.00
14614;DHT22;7393;51.446;6.800;2024-02-23T04:54:05;6.40;1.00
14614;DHT22;7393;51.446;6.800;2024-02-23T04:56:32;6.40;1.00
14614;DHT22;7393;51.446;6.800;2024-02-23T04:58:59;6.30;1.00
14614;DHT22;7393;51.446;6.800;2024-02-23T05:01:25;6.30;1.00
14614;DHT22;7393;51.446;6.800;2024-02-23T05:03:53;6.30;1.00
14614;DHT22;7393;51.446;6.800;2024-02-23T05:06:20;6.30;1.00
14614;DHT22;7393;51.446;6.800;2024-02-23T05:08:47;6.30;1.00
14614;DHT22;7393;51.446;6.800;2024-02-23T05:11:14;6.40;1.00
14614;DHT22;7393;51.446;6.800;2024-02-23T05:13:41;6.40;1.00
14614;DHT22;7393;51.446;6.800;2024-02-23T05:16:08;6.40;1.00
14614;DHT22;7393;51.446;6.800;2024-02-23T05:18:35;6.40;1.00
14614;DHT22;7393;51.446;6.800;2024-02-23T05:21:04;6.30;1.00
14614;DHT22;7393;51.446;6.800;2024-02-23T05:23:30;6.30;1.00
14614;DHT22;7393;51.446;6.800;2024-02-23T05:25:57;6.30;1.00
14614;DHT22;7393;51.446;6.800;2024-02-23T05:28:24;6.40;1.00
14614;DHT22;7393;51.446;6.800;2024-02-23T05:30:51;6.40;1.00
14614;DHT22;7393;51.446;6.800;2024-02-23T05:33:18;6.40;1.00
14614;DHT22;7393;51.446;6.800;2024-02-23T05:35:46;6.40;1.00
14614;DHT22;7393;51.446;6.800;2024-02-23T05:38:15;6.40;1.00
14614;DHT22;7393;51.446;6.800;2024-02-23T05:40:42;6.40;1.00
14614;DHT22;7393;51.446;6.800;2024-02-23T05:43:09;6.40;1.00
14614;DHT22;7393;51.446;6.800;2024-02-23T05:45:36;6.40;1.00
14614;DHT22;7393;51.446;6.800;2024-02-23T05:48:03;6.40;1.00
14614;DHT22;7393;51.446;6.800;2024-02-23T05:50:30;6.40;1.00
14614;DHT22;7393;51.446;6.800;2024-02-23T05:52:57;6.40;1.00
14614;DHT22;7393;51.446;6.800;2024-02-23T05:55:25;6.40;1.00
14614;DHT22;7393;51.446;6.800;2024-02-23T05:57:52;6.40;1.00
14614;DHT22;7393;51.446;6.800;2024-02-23T06:00:19;6.40;1.00
14614;DHT22;7393;51.446;6.800;2024-02-23T06:02:47;6.40;1.00
14614;DHT22;7393;51.446;6.800;2024-02-23T06:05:16;6.40;1.00
14614;DHT22;7393;51.446;6.800;2024-02-23T06:07:43;6.40;1.00
14614;DHT22;7393;51.446;6.800;2024-02-23T06:10:10;6.50;1.00
14614;DHT22;7393;51.446;6.800;2024-02-23T06:12:38;6.40;1.00
14614;DHT22;7393;51.446;6.800;2024-02-23T06:15:06;6.50;1.00
14614;DHT22;7393;51.446;6.800;2024-02-23T06:17:33;6.50;1.00
14614;DHT22;7393;51.446;6.800;2024-02-23T06:19:59;6.40;1.00
14614;DHT22;7393;51.446;6.800;2024-02-23T06:22:26;6.40;1.00
14614;DHT22;7393;51.446;6.800;2024-02-23T06:24:53;6.40;1.00
14614;DHT22;7393;51.446;6.800;2024-02-23T06:27:20;6.40;1.00
14614;DHT22;7393;51.446;6.800;2024-02-23T06:29:48;6.40;1.00
14614;DHT22;7393;51.446;6.800;2024-02-23T06:32:15;6.50;1.00
14614;DHT22;7393;51.446;6.800;2024-02-23T06:34:42;6.50;1.00
14614;DHT22;7393;51.446;6.800;2024-02-23T06:37:09;6.50;1.00
14614;DHT22;7393;51.446;6.800;2024-02-23T06:39:36;6.50;1.00
14614;DHT22;7393;51.446;6.800;2024-02-23T06:42:03;6.50;1.00
14614;DHT22;7393;51.446;6.800;2024-02-23T06:44:30;6.60;1.00
14614;DHT22;7393;51.446;6.800;2024-02-23T06:46:58;6.60;1.00
14614;DHT22;7393;51.446;6.800;2024-02-23T06:49:25;6.60;1.00
14614;DHT22;7393;51.446;6.800;2024-02-23T06:51:51;6.60;1.00
14614;DHT22;7393;51.446;6.800;2024-02-23T06:54:19;6.60;1.00
14614;DHT22;7393;51.446;6.800;2024-02-23T06:56:45;6.60;1.00
14614;DHT22;7393;51.446;6.800;2024-02-23T06:59:12;6.60;1.00
14614;DHT22;7393;51.446;6.800;2024-02-23T07:01:48;6.60;1.00
14614;DHT22;7393;51.446;6.800;2024-02-23T07:04:16;6.60;1.00
14614;DHT22;7393;51.446;6.800;2024-02-23T07:06:43;6.60;1.00
14614;DHT22;7393;51.446;6.800;2024-02-23T07:09:10;6.60;1.00
14614;DHT22;7393;51.446;6.800;2024-02-23T07:11:38;6.60;1.00
14614;DHT22;7393;51.446;6.800;2024-02-23T07:14:06;6.60;1.00
14614;DHT22;7393;51.446;6.800;2024-02-23T07:16:37;6.60;1.00
14614;DHT22;7393;51.446;6.800;2024-02-23T07:19:05;6.70;1.00
14614;DHT22;7393;51.446;6.800;2024-02-23T07:21:33;6.60;1.00
14614;DHT22;7393;51.446;6.800;2024-02-23T07:24:00;6.60;1.00
14614;DHT22;7393;51.446;6.800;2024-02-23T07:26:27;6.60;1.00
14614;DHT22;7393;51.446;6.800;2024-02-23T07:28:54;6.70;1.00
14614;DHT22;7393;51.446;6.800;2024-02-23T07:31:21;6.70;1.00
14614;DHT22;7393;51.446;6.800;2024-02-23T07:33:48;6.70;1.00
14614;DHT22;7393;51.446;6.800;2024-02-23T07:36:16;6.70;1.00
14614;DHT22;7393;51.446;6.800;2024-02-23T07:38:45;6.80;1.00
14614;DHT22;7393;51.446;6.800;2024-02-23T07:41:12;6.80;1.00
14614;DHT22;7393;51.446;6.800;2024-02-23T07:43:39;6.80;1.00
14614;DHT22;7393;51.446;6.800;2024-02-23T07:46:06;6.80;1.00
14614;DHT22;7393;51.446;6.800;2024-02-23T07:48:34;6.90;1.00
14614;DHT22;7393;51.446;6.800;2024-02-23T07:51:01;6.90;1.00
14614;DHT22;7393;51.446;6.800;2024-02-23T07:53:28;6.90;1.00
14614;DHT22;7393;51.446;6.800;2024-02-23T07:55:57;6.90;1.00
14614;DHT22;7393;51.446;6.800;2024-02-23T07:58:27;6.90;1.00
14614;DHT22;7393;51.446;6.800;2024-02-23T08:00:54;7.00;1.00
14614;DHT22;7393;51.446;6.800;2024-02-23T08:03:21;7.00;1.00
14614;DHT22;7393;51.446;6.800;2024-02-23T08:05:47;7.00;1.00
14614;DHT22;7393;51.446;6.800;2024-02-23T08:08:14;7.00;1.00
14614;DHT22;7393;51.446;6.800;2024-02-23T08:10:41;7.10;1.00
14614;DHT22;7393;51.446;6.800;2024-02-23T08:13:10;7.10;1.00
14614;DHT22;7393;51.446;6.800;2024-02-23T08:15:37;7.10;1.00
14614;DHT22;7393;51.446;6.800;2024-02-23T08:18:04;7.10;1.00
14614;DHT22;7393;51.446;6.800;2024-02-23T08:20:31;7.10;1.00
14614;DHT22;7393;51.446;6.800;2024-02-23T08:22:58;7.10;1.00
14614;DHT22;7393;51.446;6.800;2024-02-23T08:25:24;7.10;1.00
14614;DHT22;7393;51.446;6.800;2024-02-23T08:27:54;7.20;1.00
14614;DHT22;7393;51.446;6.800;2024-02-23T08:30:22;7.20;1.00
14614;DHT22;7393;51.446;6.800;2024-02-23T08:32:49;7.20;1.00
14614;DHT22;7393;51.446;6.800;2024-02-23T08:35:15;7.30;1.00
14614;DHT22;7393;51.446;6.800;2024-02-23T08:37:42;7.30;1.00
14614;DHT22;7393;51.446;6.800;2024-02-23T08:40:10;7.40;1.00
14614;DHT22;7393;51.446;6.800;2024-02-23T08:42:37;7.50;1.00
14614;DHT22;7393;51.446;6.800;2024-02-23T08:45:05;7.50;1.00
14614;DHT22;7393;51.446;6.800;2024-02-23T08:47:33;7.60;1.00
14614;DHT22;7393;51.446;6.800;2024-02-23T08:50:01;7.60;1.00
14614;DHT22;7393;51.446;6.800;2024-02-23T08:52:28;7.60;1.00
14614;DHT22;7393;51.446;6.800;2024-02-23T08:54:54;7.50;1.00
14614;DHT22;7393;51.446;6.800;2024-02-23T08:57:21;7.50;1.00
14614;DHT22;7393;51.446;6.800;2024-02-23T08:59:48;7.50;1.00
14614;DHT22;7393;51.446;6.800;2024-02-23T09:02:15;7.60;1.00
14614;DHT22;7393;51.446;6.800;2024-02-23T09:04:43;7.60;1.00
14614;DHT22;7393;51.446;6.800;2024-02-23T09:07:11;7.70;1.00
14614;DHT22;7393;51.446;6.800;2024-02-23T09:09:38;7.80;1.00
14614;DHT22;7393;51.446;6.800;2024-02-23T09:12:05;7.80;1.00
14614;DHT22;7393;51.446;6.800;2024-02-23T09:14:35;7.90;1.00
14614;DHT22;7393;51.446;6.800;2024-02-23T09:17:03;7.90;1.00
14614;DHT22;7393;51.446;6.800;2024-02-23T09:19:31;8.00;1.00
14614;DHT22;7393;51.446;6.800;2024-02-23T09:21:59;8.10;1.00
14614;DHT22;7393;51.446;6.800;2024-02-23T09:24:27;8.10;1.00
14614;DHT22;7393;51.446;6.800;2024-02-23T09:26:54;8.20;1.00
14614;DHT22;7393;51.446;6.800;2024-02-23T09:29:21;8.20;1.00
14614;DHT22;7393;51.446;6.800;2024-02-23T09:31:49;8.20;99.90
14614;DHT22;7393;51.446;6.800;2024-02-23T09:34:15;8.10;99.90
14614;DHT22;7393;51.446;6.800;2024-02-23T09:36:42;8.10;1.00
14614;DHT22;7393;51.446;6.800;2024-02-23T09:39:10;8.10;1.00
14614;DHT22;7393;51.446;6.800;2024-02-23T09:41:39;8.10;1.00
14614;DHT22;7393;51.446;6.800;2024-02-23T09:44:07;8.00;1.00
14614;DHT22;7393;51.446;6.800;2024-02-23T09:46:36;8.10;99.90
14614;DHT22;7393;51.446;6.800;2024-02-23T09:49:04;8.10;99.90
14614;DHT22;7393;51.446;6.800;2024-02-23T09:51:34;8.10;99.90
14614;DHT22;7393;51.446;6.800;2024-02-23T09:54:01;8.10;99.90
14614;DHT22;7393;51.446;6.800;2024-02-23T09:56:30;8.10;99.90
14614;DHT22;7393;51.446;6.800;2024-02-23T09:59:01;8.10;99.90
14614;DHT22;7393;51.446;6.800;2024-02-23T10:01:30;8.10;1.00
14614;DHT22;7393;51.446;6.800;2024-02-23T10:03:59;8.10;1.00
14614;DHT22;7393;51.446;6.800;2024-02-23T10:06:27;8.10;99.90
14614;DHT22;7393;51.446;6.800;2024-02-23T10:08:54;8.10;99.90
14614;DHT22;7393;51.446;6.800;2024-02-23T10:11:21;8.10;99.90
14614;DHT22;7393;51.446;6.800;2024-02-23T10:13:50;8.20;99.90
14614;DHT22;7393;51.446;6.800;2024-02-23T10:16:17;8.20;99.90
14614;DHT22;7393;51.446;6.800;2024-02-23T10:18:45;8.20;99.90
14614;DHT22;7393;51.446;6.800;2024-02-23T10:21:13;8.20;99.90
14614;DHT22;7393;51.446;6.800;2024-02-23T10:23:40;8.30;99.90
14614;DHT22;7393;51.446;6.800;2024-02-23T10:26:07;8.30;99.90
14614;DHT22;7393;51.446;6.800;2024-02-23T10:28:34;8.30;99.90
14614;DHT22;7393;51.446;6.800;2024-02-23T10:31:03;8.30;99.90
14614;DHT22;7393;51.446;6.800;2024-02-23T10:33:31;8.30;99.90
14614;DHT22;7393;51.446;6.800;2024-02-23T10:35:58;8.30;99.90
14614;DHT22;7393;51.446;6.800;2024-02-23T10:38:27;8.30;99.90
14614;DHT22;7393;51.446;6.800;2024-02-23T10:40:55;8.30;99.90
14614;DHT22;7393;51.446;6.800;2024-02-23T10:43:28;8.40;99.90
14614;DHT22;7393;51.446;6.800;2024-02-23T10:45:57;8.30;99.90
14614;DHT22;7393;51.446;6.800;2024-02-23T10:48:27;8.30;99.90
14614;DHT22;7393;51.446;6.800;2024-02-23T10:50:55;8.30;99.90
14614;DHT22;7393;51.446;6.800;2024-02-23T10:53:23;8.40;99.90
14614;DHT22;7393;51.446;6.800;2024-02-23T10:55:53;8.40;99.90
14614;DHT22;7393;51.446;6.800;2024-02-23T10:58:22;8.40;99.90
14614;DHT22;7393;51.446;6.800;2024-02-23T11:00:49;8.40;99.90
14614;DHT22;7393;51.446;6.800;2024-02-23T11:03:17;8.40;99.90
14614;DHT22;7393;51.446;6.800;2024-02-23T11:05:48;8.40;99.90
14614;DHT22;7393;51.446;6.800;2024-02-23T11:08:17;8.40;99.90
14614;DHT22;7393;51.446;6.800;2024-02-23T11:10:49;8.50;99.90
14614;DHT22;7393;51.446;6.800;2024-02-23T11:13:17;8.50;99.90
14614;DHT22;7393;51.446;6.800;2024-02-23T11:15:44;8.50;99.90
14614;DHT22;7393;51.446;6.800;2024-02-23T11:18:23;8.50;99.90
14614;DHT22;7393;51.446;6.800;2024-02-23T11:20:59;8.60;99.90
14614;DHT22;7393;51.446;6.800;2024-02-23T11:23:27;8.60;99.90
14614;DHT22;7393;51.446;6.800;2024-02-23T11:26:04;8.60;99.90
14614;DHT22;7393;51.446;6.800;2024-02-23T11:28:32;8.60;99.90
14614;DHT22;7393;51.446;6.800;2024-02-23T11:30:59;8.60;99.90
14614;DHT22;7393;51.446;6.800;2024-02-23T11:33:28;8.60;99.90
14614;DHT22;7393;51.446;6.800;2024-02-23T11:36:06;8.60;99.90
14614;DHT22;7393;51.446;6.800;2024-02-23T11:38:33;8.60;99.90
14614;DHT22;7393;51.446;6.800;2024-02-23T11:41:01;8.70;99.90
14614;DHT22;7393;51.446;6.800;2024-02-23T11:43:28;8.70;99.90
14614;DHT22;7393;51.446;6.800;2024-02-23T11:45:55;8.70;99.90
14614;DHT22;7393;51.446;6.800;2024-02-23T11:48:23;8.70;99.90
14614;DHT22;7393;51.446;6.800;2024-02-23T11:50:50;8.70;99.90
14614;DHT22;7393;51.446;6.800;2024-02-23T11:53:18;8.70;99.90
14614;DHT22;7393;51.446;6.800;2024-02-23T11:55:48;8.70;99.90
14614;DHT22;7393;51.446;6.800;2024-02-23T11:58:15;8.70;99.90
14614;DHT22;7393;51.446;6.800;2024-02-23T12:00:42;8.70;99.90
14614;DHT22;7393;51.446;6.800;2024-02-23T12:03:09;8.70;99.90
14614;DHT22;7393;51.446;6.800;2024-02-23T12:05:36;8.70;99.90
14614;DHT22;7393;51.446;6.800;2024-02-23T12:08:04;8.70;99.90
14614;DHT22;7393;51.446;6.800;2024-02-23T12:10:33;8.70;99.90
14614;DHT22;7393;51.446;6.800;2024-02-23T12:13:02;8.70;99.90
14614;DHT22;7393;51.446;6.800;2024-02-23T12:15:29;8.80;99.90
14614;DHT22;7393;51.446;6.800;2024-02-23T12:17:58;8.80;99.90
14614;DHT22;7393;51.446;6.800;2024-02-23T12:20:24;8.80;99.90
14614;DHT22;7393;51.446;6.800;2024-02-23T12:22:54;8.90;99.90
14614;DHT22;7393;51.446;6.800;2024-02-23T12:25:22;8.90;99.90
14614;DHT22;7393;51.446;6.800;2024-02-23T12:27:55;8.90;99.90
14614;DHT22;7393;51.446;6.800;2024-02-23T12:30:23;8.90;99.90
14614;DHT22;7393;51.446;6.800;2024-02-23T12:32:49;9.00;99.90
14614;DHT22;7393;51.446;6.800;2024-02-23T12:35:16;8.90;99.90
14614;DHT22;7393;51.446;6.800;2024-02-23T12:37:43;8.90;99.90
14614;DHT22;7393;51.446;6.800;2024-02-23T12:40:11;8.90;99.90
14614;DHT22;7393;51.446;6.800;2024-02-23T12:42:38;8.90;99.90
14614;DHT22;7393;51.446;6.800;2024-02-23T12:45:07;9.00;99.90
14614;DHT22;7393;51.446;6.800;2024-02-23T12:47:34;9.00;99.90
14614;DHT22;7393;51.446;6.800;2024-02-23T12:50:01;9.00;99.90
14614;DHT22;7393;51.446;6.800;2024-02-23T12:52:27;9.00;99.90
14614;DHT22;7393;51.446;6.800;2024-02-23T12:54:54;9.00;99.90
14614;DHT22;7393;51.446;6.800;2024-02-23T12:57:21;9.10;99.90
14614;DHT22;7393;51.446;6.800;2024-02-23T12:59:48;9.10;99.90
14614;DHT22;7393;51.446;6.800;2024-02-23T13:02:16;9.10;99.90
14614;DHT22;7393;51.446;6.800;2024-02-23T13:04:43;9.10;99.90
14614;DHT22;7393;51.446;6.800;2024-02-23T13:07:14;9.20;99.90
14614;DHT22;7393;51.446;6.800;2024-02-23T13:09:41;9.20;99.90
14614;DHT22;7393;51.446;6.800;2024-02-23T13:12:08;9.30;99.90
14614;DHT22;7393;51.446;6.800;2024-02-23T13:14:35;9.20;99.90
14614;DHT22;7393;51.446;6.800;2024-02-23T13:17:02;9.20;99.90
14614;DHT22;7393;51.446;6.800;2024-02-23T13:19:30;9.20;99.90
14614;DHT22;7393;51.446;6.800;2024-02-23T13:21:57;9.10;99.90
14614;DHT22;7393;51.446;6.800;2024-02-23T13:24:25;9.20;99.90
14614;DHT22;7393;51.446;6.800;2024-02-23T13:26:52;9.20;99.90
14614;DHT22;7393;51.446;6.800;2024-02-23T13:29:19;9.20;99.90
14614;DHT22;7393;51.446;6.800;2024-02-23T13:31:46;9.20;99.90
14614;DHT22;7393;51.446;6.800;2024-02-23T13:34:13;9.20;99.90
14614;DHT22;7393;51.446;6.800;2024-02-23T13:36:43;9.20;99.90
14614;DHT22;7393;51.446;6.800;2024-02-23T13:39:10;9.30;99.90
14614;DHT22;7393;51.446;6.800;2024-02-23T13:41:37;9.30;99.90
14614;DHT22;7393;51.446;6.800;2024-02-23T13:44:04;9.30;99.90
14614;DHT22;7393;51.446;6.800;2024-02-23T13:46:31;9.30;99.90
14614;DHT22;7393;51.446;6.800;2024-02-23T13:49:05;9.40;99.90
14614;DHT22;7393;51.446;6.800;2024-02-23T13:51:33;9.40;99.90
14614;DHT22;7393;51.446;6.800;2024-02-23T13:54:01;9.40;99.90
14614;DHT22;7393;51.446;6.800;2024-02-23T13:56:28;9.40;99.90
14614;DHT22;7393;51.446;6.800;2024-02-23T13:58:55;9.40;99.90
14614;DHT22;7393;51.446;6.800;2024-02-23T14:01:22;9.40;99.90
14614;DHT22;7393;51.446;6.800;2024-02-23T14:03:49;9.50;99.90
14614;DHT22;7393;51.446;6.800;2024-02-23T14:06:15;9.50;99.90
14614;DHT22;7393;51.446;6.800;2024-02-23T14:08:42;9.50;99.90
14614;DHT22;7393;51.446;6.800;2024-02-23T14:11:11;9.50;99.90
14614;DHT22;7393;51.446;6.800;2024-02-23T14:13:38;9.60;99.90
14614;DHT22;7393;51.446;6.800;2024-02-23T14:16:05;9.60;99.90
14614;DHT22;7393;51.446;6.800;2024-02-23T14:18:32;9.60;99.90
14614;DHT22;7393;51.446;6.800;2024-02-23T14:21:03;9.60;99.90
14614;DHT22;7393;51.446;6.800;2024-02-23T14:23:30;9.60;99.90
14614;DHT22;7393;51.446;6.800;2024-02-23T14:25:57;9.60;99.90
14614;DHT22;7393;51.446;6.800;2024-02-23T14:28:25;9.60;99.90
14614;DHT22;7393;51.446;6.800;2024-02-23T14:30:52;9.60;99.90
14614;DHT22;7393;51.446;6.800;2024-02-23T14:33:19;9.60;99.90
14614;DHT22;7393;51.446;6.800;2024-02-23T14:35:46;9.60;99.90
14614;DHT22;7393;51.446;6.800;2024-02-23T14:38:14;9.60;99.90
14614;DHT22;7393;51.446;6.800;2024-02-23T14:40:41;9.60;99.90
14614;DHT22;7393;51.446;6.800;2024-02-23T14:43:08;9.70;99.90
14614;DHT22;7393;51.446;6.800;2024-02-23T14:45:37;9.70;99.90
14614;DHT22;7393;51.446;6.800;2024-02-23T14:48:04;9.70;99.90
14614;DHT22;7393;51.446;6.800;2024-02-23T14:50:31;9.80;99.90
14614;DHT22;7393;51.446;6.800;2024-02-23T14:52:58;9.80;99.90
14614;DHT22;7393;51.446;6.800;2024-02-23T14:55:25;9.90;99.90
14614;DHT22;7393;51.446;6.800;2024-02-23T14:57:52;9.90;99.90
14614;DHT22;7393;51.446;6.800;2024-02-23T15:00:19;9.90;99.90
14614;DHT22;7393;51.446;6.800;2024-02-23T15:02:47;10.00;99.90
14614;DHT22;7393;51.446;6.800;2024-02-23T15:05:14;10.00;99.90
14614;DHT22;7393;51.446;6.800;2024-02-23T15:07:43;10.00;99.90
14614;DHT22;7393;51.446;6.800;2024-02-23T15:10:09;9.90;99.90
14614;DHT22;7393;51.446;6.800;2024-02-23T15:12:36;9.90;99.90
14614;DHT22;7393;51.446;6.800;2024-02-23T15:15:04;9.90;99.90
14614;DHT22;7393;51.446;6.800;2024-02-23T15:17:32;9.80;99.90
14614;DHT22;7393;51.446;6.800;2024-02-23T15:20:00;9.80;99.90
14614;DHT22;7393;51.446;6.800;2024-02-23T15:22:27;9.80;99.90
14614;DHT22;7393;51.446;6.800;2024-02-23T15:24:54;9.80;99.90
14614;DHT22;7393;51.446;6.800;2024-02-23T15:27:24;9.80;99.90
14614;DHT22;7393;51.446;6.800;2024-02-23T15:29:50;9.70;99.90
14614;DHT22;7393;51.446;6.800;2024-02-23T15:32:17;9.70;99.90
14614;DHT22;7393;51.446;6.800;2024-02-23T15:34:44;9.60;99.90
14614;DHT22;7393;51.446;6.800;2024-02-23T15:37:12;9.60;99.90
14614;DHT22;7393;51.446;6.800;2024-02-23T15:39:39;9.50;99.90
14614;DHT22;7393;51.446;6.800;2024-02-23T15:42:06;9.50;99.90
14614;DHT22;7393;51.446;6.800;2024-02-23T15:44:33;9.40;99.90
14614;DHT22;7393;51.446;6.800;2024-02-23T15:47:00;9.40;99.90
14614;DHT22;7393;51.446;6.800;2024-02-23T15:49:27;9.30;99.90
14614;DHT22;7393;51.446;6.800;2024-02-23T15:51:54;9.20;99.90
14614;DHT22;7393;51.446;6.800;2024-02-23T15:54:22;9.20;99.90
14614;DHT22;7393;51.446;6.800;2024-02-23T15:56:49;9.10;99.90
14614;DHT22;7393;51.446;6.800;2024-02-23T15:59:16;9.00;99.90
14614;DHT22;7393;51.446;6.800;2024-02-23T16:01:43;8.90;99.90
14614;DHT22;7393;51.446;6.800;2024-02-23T16:04:10;8.70;99.90
14614;DHT22;7393;51.446;6.800;2024-02-23T16:06:37;8.60;99.90
14614;DHT22;7393;51.446;6.800;2024-02-23T16:09:04;8.50;99.90
14614;DHT22;7393;51.446;6.800;2024-02-23T16:11:34;8.40;99.90
14614;DHT22;7393;51.446;6.800;2024-02-23T16:14:02;8.40;99.90